createdAt,value
2019-03-10T00:00:06.026Z,9.30
2019-03-10T00:02:33.306Z,9.20
2019-03-10T00:04:59.506Z,9.30
2019-03-10T00:07:25.730Z,9.30
2019-03-10T00:09:51.936Z,9.30
2019-03-10T00:12:18.175Z,9.30
2019-03-10T00:14:44.392Z,9.30
2019-03-10T00:17:10.988Z,9.30
2019-03-10T00:19:37.191Z,9.30
2019-03-10T00:22:04.622Z,9.30
2019-03-10T00:24:30.922Z,9.20
2019-03-10T00:26:57.146Z,9.20
2019-03-10T00:29:23.365Z,9.20
2019-03-10T00:31:49.682Z,9.20
2019-03-10T00:34:16.874Z,9.20
2019-03-10T00:36:43.574Z,9.10
2019-03-10T00:39:22.617Z,9.10
2019-03-10T00:42:21.786Z,9.20
2019-03-10T00:45:11.462Z,9.20
2019-03-10T00:47:56.851Z,9.20
2019-03-10T00:50:26.850Z,9.20
2019-03-10T00:53:00.137Z,9.20
2019-03-10T00:55:26.847Z,9.10
2019-03-10T00:57:53.290Z,9.00
2019-03-10T01:00:19.594Z,9.00
2019-03-10T01:02:45.918Z,9.00
2019-03-10T01:05:12.198Z,9.00
2019-03-10T01:07:38.431Z,9.00
2019-03-10T01:10:06.041Z,9.00
2019-03-10T01:12:32.667Z,9.00
2019-03-10T01:14:58.981Z,9.00
2019-03-10T01:17:25.794Z,9.00
2019-03-10T01:19:52.417Z,9.00
2019-03-10T01:22:20.023Z,9.10
2019-03-10T01:24:46.234Z,9.00
2019-03-10T01:27:12.451Z,9.00
2019-03-10T01:29:38.922Z,9.00
2019-03-10T01:32:24.154Z,9.00
2019-03-10T01:34:59.746Z,8.90
2019-03-10T01:37:25.947Z,9.00
2019-03-10T01:39:52.159Z,9.00
2019-03-10T01:42:18.356Z,9.00
2019-03-10T01:44:44.584Z,9.00
2019-03-10T01:47:10.886Z,9.10
2019-03-10T01:49:37.102Z,9.00
2019-03-10T01:52:03.510Z,9.10
2019-03-10T01:54:29.803Z,9.10
2019-03-10T01:56:56.002Z,9.10
2019-03-10T01:59:22.231Z,9.10
2019-03-10T02:01:48.622Z,9.10
2019-03-10T02:04:14.843Z,9.10
2019-03-10T02:06:41.077Z,9.10
2019-03-10T02:09:07.863Z,9.00
2019-03-10T02:11:34.067Z,8.90
2019-03-10T02:14:00.298Z,9.00
2019-03-10T02:16:26.494Z,8.90
2019-03-10T02:18:52.738Z,8.90
2019-03-10T02:21:19.224Z,9.00
2019-03-10T02:23:45.431Z,9.00
2019-03-10T02:26:11.670Z,8.90
2019-03-10T02:28:37.874Z,8.90
2019-03-10T02:31:04.092Z,8.90
2019-03-10T02:33:30.306Z,9.00
2019-03-10T02:35:56.524Z,9.00
2019-03-10T02:38:22.727Z,8.90
2019-03-10T02:40:48.947Z,9.10
2019-03-10T02:43:15.153Z,9.00
2019-03-10T02:45:41.476Z,9.10
2019-03-10T02:48:08.607Z,9.00
2019-03-10T02:50:34.828Z,8.90
2019-03-10T02:53:01.073Z,9.00
2019-03-10T02:55:27.327Z,9.00
2019-03-10T02:57:53.541Z,9.00
2019-03-10T03:00:19.753Z,9.10
2019-03-10T03:02:45.987Z,8.90
2019-03-10T03:05:12.322Z,8.90
2019-03-10T03:07:38.625Z,8.90
2019-03-10T03:10:11.218Z,8.90
2019-03-10T03:12:37.445Z,8.90
2019-03-10T03:15:05.455Z,8.90
2019-03-10T03:17:31.675Z,8.80
2019-03-10T03:19:57.885Z,8.70
2019-03-10T03:22:24.091Z,8.60
2019-03-10T03:24:50.356Z,8.60
2019-03-10T03:27:18.644Z,8.50
2019-03-10T03:29:44.851Z,8.50
2019-03-10T03:32:11.096Z,8.40
2019-03-10T03:34:37.368Z,8.30
2019-03-10T03:37:03.696Z,8.30
2019-03-10T03:39:31.706Z,8.30
2019-03-10T03:41:57.924Z,8.30
2019-03-10T03:44:24.501Z,8.30
2019-03-10T03:46:50.724Z,8.20
2019-03-10T03:49:17.300Z,8.10
2019-03-10T03:51:43.500Z,8.10
2019-03-10T03:54:09.723Z,8.10
2019-03-10T03:56:35.927Z,8.10
2019-03-10T03:59:02.253Z,8.20
2019-03-10T04:01:39.456Z,8.10
2019-03-10T04:04:05.675Z,8.10
2019-03-10T04:06:31.943Z,8.00
2019-03-10T04:08:58.170Z,8.00
2019-03-10T04:11:24.423Z,8.00
2019-03-10T04:13:50.698Z,8.00
2019-03-10T04:16:16.910Z,8.00
2019-03-10T04:18:43.123Z,7.90
2019-03-10T04:21:09.381Z,7.90
2019-03-10T04:23:38.784Z,7.90
2019-03-10T04:26:05.009Z,7.80
2019-03-10T04:28:31.222Z,7.80
2019-03-10T04:30:57.459Z,7.80
2019-03-10T04:33:23.851Z,7.70
2019-03-10T04:35:50.071Z,7.80
2019-03-10T04:38:16.283Z,7.80
2019-03-10T04:40:42.490Z,7.70
2019-03-10T04:43:08.710Z,7.70
2019-03-10T04:45:34.902Z,7.60
2019-03-10T04:48:01.127Z,7.60
2019-03-10T04:50:27.547Z,7.50
2019-03-10T04:52:54.027Z,7.60
2019-03-10T04:55:22.167Z,7.50
2019-03-10T04:57:59.327Z,7.60
2019-03-10T05:00:25.535Z,7.50
2019-03-10T05:02:51.734Z,7.50
2019-03-10T05:05:17.953Z,7.50
2019-03-10T05:07:44.310Z,7.50
2019-03-10T05:10:10.538Z,7.50
2019-03-10T05:12:36.747Z,7.50
2019-03-10T05:15:04.831Z,7.50
2019-03-10T05:17:31.027Z,7.50
2019-03-10T05:19:57.251Z,7.50
2019-03-10T05:22:23.480Z,7.40
2019-03-10T05:24:50.016Z,7.40
2019-03-10T05:27:16.302Z,7.40
2019-03-10T05:29:42.528Z,7.40
2019-03-10T05:32:08.731Z,7.40
2019-03-10T05:34:35.055Z,7.40
2019-03-10T05:37:01.250Z,7.40
2019-03-10T05:39:27.507Z,7.40
2019-03-10T05:41:53.698Z,7.40
2019-03-10T05:44:19.906Z,7.40
2019-03-10T05:46:46.163Z,7.40
2019-03-10T05:49:12.371Z,7.30
2019-03-10T05:51:38.595Z,7.40
2019-03-10T05:54:04.815Z,7.40
2019-03-10T05:56:31.019Z,7.50
2019-03-10T05:58:57.238Z,7.40
2019-03-10T06:01:23.471Z,7.40
2019-03-10T06:03:49.808Z,7.40
2019-03-10T06:06:16.014Z,7.50
2019-03-10T06:08:42.210Z,7.50
2019-03-10T06:11:08.427Z,7.40
2019-03-10T06:13:34.634Z,7.30
2019-03-10T06:16:00.974Z,7.40
2019-03-10T06:18:27.294Z,7.40
2019-03-10T06:20:53.520Z,7.40
2019-03-10T06:23:19.751Z,7.40
2019-03-10T06:25:46.716Z,7.30
2019-03-10T06:28:13.044Z,7.30
2019-03-10T06:30:39.276Z,7.30
2019-03-10T06:33:05.513Z,7.40
2019-03-10T06:35:31.755Z,7.30
2019-03-10T06:37:58.010Z,7.30
2019-03-10T06:40:31.602Z,7.40
2019-03-10T06:42:52.366Z,7.40
2019-03-10T06:45:18.687Z,7.40
2019-03-10T06:47:45.026Z,7.40
2019-03-10T06:50:12.866Z,7.50
2019-03-10T06:52:39.086Z,7.40
2019-03-10T06:55:05.490Z,7.50
2019-03-10T06:57:31.738Z,7.50
2019-03-10T06:59:57.978Z,7.60
2019-03-10T07:02:24.386Z,7.70
2019-03-10T07:04:50.639Z,7.80
2019-03-10T07:07:16.995Z,7.80
2019-03-10T07:09:43.405Z,7.80
2019-03-10T07:12:09.634Z,7.80
2019-03-10T07:14:35.850Z,7.80
2019-03-10T07:17:02.083Z,7.80
2019-03-10T07:19:28.475Z,7.90
2019-03-10T07:21:54.738Z,8.00
2019-03-10T07:24:20.960Z,8.10
2019-03-10T07:26:47.188Z,8.10
2019-03-10T07:29:27.356Z,8.20
2019-03-10T07:31:58.209Z,8.30
2019-03-10T07:34:38.393Z,8.40
2019-03-10T07:37:21.638Z,8.50
2019-03-10T07:40:08.238Z,8.50
2019-03-10T07:42:39.150Z,8.60
2019-03-10T07:45:09.451Z,8.70
2019-03-10T07:47:54.194Z,8.90
2019-03-10T07:50:25.050Z,9.10
2019-03-10T07:52:59.182Z,9.20
2019-03-10T07:55:27.877Z,9.40
2019-03-10T07:57:57.055Z,9.70
2019-03-10T08:00:31.437Z,9.80
2019-03-10T08:03:08.838Z,9.90
2019-03-10T08:05:39.739Z,10.10
2019-03-10T08:08:07.898Z,10.30
2019-03-10T08:10:42.326Z,10.60
2019-03-10T08:13:16.651Z,11.00
2019-03-10T08:15:50.644Z,11.30
2019-03-10T08:18:21.551Z,11.70
2019-03-10T08:20:49.750Z,11.80
2019-03-10T08:23:21.026Z,11.90
2019-03-10T08:25:49.254Z,11.90
2019-03-10T08:28:29.740Z,11.90
2019-03-10T08:31:14.630Z,12.00
2019-03-10T08:33:45.527Z,12.10
2019-03-10T08:36:13.965Z,12.20
2019-03-10T08:38:44.932Z,12.30
2019-03-10T08:41:15.830Z,12.40
2019-03-10T08:43:49.809Z,12.40
2019-03-10T08:46:24.155Z,12.40
2019-03-10T08:49:10.051Z,12.40
2019-03-10T08:51:56.853Z,12.60
2019-03-10T08:54:34.129Z,12.80
2019-03-10T08:57:04.880Z,12.90
2019-03-10T08:59:38.978Z,13.00
2019-03-10T09:05:00.365Z,13.10
2019-03-10T09:07:34.610Z,13.20
2019-03-10T09:10:14.723Z,13.40
2019-03-10T09:12:42.851Z,13.50
2019-03-10T09:15:23.601Z,13.40
2019-03-10T09:17:57.859Z,13.30
2019-03-10T09:20:29.226Z,13.40
2019-03-10T09:23:09.372Z,13.40
2019-03-10T09:25:46.534Z,13.30
2019-03-10T09:28:29.835Z,13.20
2019-03-10T09:31:00.819Z,13.00
2019-03-10T09:33:44.387Z,12.80
2019-03-10T09:36:18.571Z,12.70
2019-03-10T09:38:46.707Z,12.60
2019-03-10T09:41:17.771Z,12.80
2019-03-10T09:44:01.063Z,12.90
2019-03-10T09:46:29.162Z,13.00
2019-03-10T09:49:13.404Z,13.20
2019-03-10T09:51:58.009Z,13.30
2019-03-10T09:54:28.925Z,13.20
2019-03-10T09:56:59.790Z,13.10
2019-03-10T09:59:27.925Z,13.10
2019-03-10T10:02:08.044Z,13.00
2019-03-10T10:04:36.258Z,13.00
2019-03-10T10:07:21.227Z,13.10
2019-03-10T10:09:49.486Z,13.10
2019-03-10T10:12:20.632Z,13.20
2019-03-10T10:14:48.900Z,13.40
2019-03-10T10:17:23.025Z,13.50
2019-03-10T10:20:06.519Z,13.50
2019-03-10T10:22:49.463Z,13.30
2019-03-10T10:25:32.830Z,13.30
2019-03-10T10:28:04.011Z,13.20
2019-03-10T10:30:48.730Z,13.20
2019-03-10T10:33:29.290Z,13.10
2019-03-10T10:35:57.399Z,13.00
2019-03-10T10:38:25.602Z,13.00
2019-03-10T10:40:59.982Z,12.80
2019-03-10T10:43:28.255Z,12.50
2019-03-10T10:58:45.295Z,11.00
2019-03-10T11:01:13.407Z,11.10
2019-03-10T11:03:41.528Z,11.10
2019-03-10T11:06:19.802Z,11.30
2019-03-10T11:09:09.768Z,11.50
2019-03-10T11:11:54.706Z,11.90
2019-03-10T11:14:31.835Z,12.00
2019-03-10T11:17:05.734Z,12.10
2019-03-10T11:19:52.166Z,12.20
2019-03-10T11:22:20.427Z,12.50
2019-03-10T11:24:48.590Z,12.70
2019-03-10T11:27:22.515Z,12.80
2019-03-10T11:29:53.885Z,12.70
2019-03-10T11:32:40.137Z,12.80
2019-03-10T11:42:51.448Z,12.70
2019-03-10T11:45:28.337Z,12.60
2019-03-10T11:48:14.819Z,12.50
2019-03-10T11:50:45.516Z,12.50
2019-03-10T11:53:20.001Z,12.60
2019-03-10T11:55:54.220Z,12.60
2019-03-10T11:58:34.650Z,12.80
2019-03-10T12:18:21.036Z,13.60
2019-03-10T12:20:47.366Z,13.50
2019-03-10T12:23:13.662Z,13.40
2019-03-10T12:25:39.991Z,13.40
2019-03-10T12:28:06.341Z,13.40
2019-03-10T12:30:32.599Z,13.30
2019-03-10T12:32:58.802Z,13.10
2019-03-10T12:35:33.900Z,13.00
2019-03-10T12:37:53.132Z,12.90
2019-03-10T12:40:19.354Z,12.70
2019-03-10T12:42:45.572Z,12.50
2019-03-10T12:45:12.116Z,12.50
2019-03-10T12:47:38.345Z,12.20
2019-03-10T12:50:11.914Z,12.20
2019-03-10T12:52:38.287Z,12.40
2019-03-10T12:55:06.820Z,12.80
2019-03-10T12:57:33.158Z,13.10
2019-03-10T12:59:59.371Z,13.20
2019-03-10T13:02:25.616Z,12.90
2019-03-10T13:04:51.922Z,12.90
2019-03-10T13:07:18.173Z,13.10
2019-03-10T13:09:44.586Z,13.20
2019-03-10T13:12:11.170Z,13.40
2019-03-10T13:14:37.383Z,13.40
2019-03-10T13:17:03.602Z,13.20
2019-03-10T13:19:29.932Z,13.20
2019-03-10T13:21:56.174Z,13.00
2019-03-10T13:24:22.444Z,12.90
2019-03-10T13:26:48.773Z,12.90
2019-03-10T13:29:15.018Z,13.00
2019-03-10T13:31:41.290Z,13.00
2019-03-10T13:34:07.576Z,13.30
2019-03-10T13:36:33.770Z,13.60
2019-03-10T13:38:59.992Z,13.80
2019-03-10T13:41:26.214Z,13.60
2019-03-10T13:43:52.431Z,13.00
2019-03-10T13:46:18.980Z,12.80
2019-03-10T13:48:45.562Z,12.60
2019-03-10T13:51:12.018Z,12.50
2019-03-10T13:53:38.370Z,12.40
2019-03-10T13:56:04.590Z,12.40
2019-03-10T13:58:30.924Z,12.40
2019-03-10T14:00:57.300Z,12.60
2019-03-10T14:03:23.508Z,13.10
2019-03-10T14:05:49.827Z,13.30
2019-03-10T14:08:16.375Z,13.10
2019-03-10T14:10:42.580Z,12.90
2019-03-10T14:13:08.799Z,12.80
2019-03-10T14:15:35.521Z,13.00
2019-03-10T14:18:01.842Z,13.60
2019-03-10T14:20:28.045Z,14.00
2019-03-10T14:22:54.322Z,14.30
2019-03-10T14:25:20.771Z,14.50
2019-03-10T14:27:47.132Z,14.20
2019-03-10T14:30:15.856Z,14.00
2019-03-10T14:32:43.783Z,14.40
2019-03-10T14:35:10.571Z,14.40
2019-03-10T14:37:36.796Z,13.30
2019-03-10T14:40:06.846Z,12.70
2019-03-10T14:42:33.055Z,13.90
2019-03-10T14:44:59.278Z,14.70
2019-03-10T14:47:26.552Z,15.50
2019-03-10T14:49:52.766Z,15.00
2019-03-10T14:52:25.757Z,13.30
2019-03-10T14:54:52.018Z,12.60
2019-03-10T14:57:18.285Z,12.00
2019-03-10T14:59:44.495Z,11.70
2019-03-10T15:02:10.722Z,11.50
2019-03-10T15:04:36.947Z,11.40
2019-03-10T15:07:03.409Z,11.60
2019-03-10T15:09:29.838Z,12.00
2019-03-10T15:11:56.129Z,12.80
2019-03-10T15:14:22.537Z,13.30
2019-03-10T15:16:49.116Z,13.80
2019-03-10T15:19:15.325Z,13.50
2019-03-10T15:21:42.878Z,13.30
2019-03-10T15:24:09.078Z,12.40
2019-03-10T15:26:45.240Z,13.50
2019-03-10T15:29:03.541Z,13.90
2019-03-10T15:31:29.768Z,14.50
2019-03-10T15:33:56.064Z,14.00
2019-03-10T15:36:22.279Z,13.60
2019-03-10T15:38:48.483Z,14.10
2019-03-10T15:41:14.721Z,13.40
2019-03-10T15:43:40.929Z,14.00
2019-03-10T15:46:07.179Z,12.80
2019-03-10T15:48:33.384Z,11.80
2019-03-10T15:50:59.583Z,11.20
2019-03-10T15:53:25.823Z,11.00
2019-03-10T15:55:52.069Z,10.80
2019-03-10T15:58:18.605Z,10.60
2019-03-10T16:00:45.117Z,10.40
2019-03-10T16:03:11.454Z,10.30
2019-03-10T16:05:37.736Z,10.00
2019-03-10T16:08:04.162Z,9.80
2019-03-10T16:10:30.382Z,9.60
2019-03-10T16:12:56.830Z,9.40
2019-03-10T16:15:27.286Z,9.10
2019-03-10T16:17:53.515Z,8.80
2019-03-10T16:20:19.939Z,8.50
2019-03-10T16:22:49.009Z,8.20
2019-03-10T16:25:16.419Z,8.10
2019-03-10T16:27:42.809Z,7.90
2019-03-10T16:30:20.471Z,7.80
2019-03-10T16:32:46.768Z,7.60
2019-03-10T16:35:14.103Z,7.50
2019-03-10T16:37:41.006Z,7.50
2019-03-10T16:40:09.950Z,7.50
2019-03-10T16:42:36.155Z,7.50
2019-03-10T16:45:03.166Z,7.60
2019-03-10T16:47:29.371Z,7.60
2019-03-10T16:49:55.593Z,7.60
2019-03-10T16:52:21.823Z,7.70
2019-03-10T16:54:48.018Z,7.70
2019-03-10T16:57:14.310Z,7.70
2019-03-10T16:59:40.538Z,7.60
2019-03-10T17:02:06.858Z,7.70
2019-03-10T17:04:33.067Z,7.60
2019-03-10T17:06:59.290Z,7.50
2019-03-10T17:09:25.542Z,7.50
2019-03-10T17:11:51.854Z,7.40
2019-03-10T17:14:18.064Z,7.40
2019-03-10T17:16:44.426Z,7.40
2019-03-10T17:19:10.630Z,7.40
2019-03-10T17:21:36.887Z,7.40
2019-03-10T17:24:03.223Z,7.40
2019-03-10T17:26:29.565Z,7.30
2019-03-10T17:28:55.979Z,7.30
2019-03-10T17:31:22.182Z,7.30
2019-03-10T17:33:48.546Z,7.30
2019-03-10T17:36:14.784Z,7.20
2019-03-10T17:38:41.126Z,7.20
2019-03-10T17:41:07.335Z,7.30
2019-03-10T17:43:33.546Z,7.30
2019-03-10T17:45:59.756Z,7.30
2019-03-10T17:48:26.293Z,7.30
2019-03-10T17:50:52.494Z,7.30
2019-03-10T17:53:18.761Z,7.20
2019-03-10T17:55:44.987Z,7.30
2019-03-10T17:58:11.463Z,7.20
2019-03-10T18:00:39.089Z,7.20
2019-03-10T18:03:05.294Z,7.20
2019-03-10T18:05:31.660Z,7.20
2019-03-10T18:07:58.083Z,7.20
2019-03-10T18:10:24.603Z,7.20
2019-03-10T18:12:50.821Z,7.20
2019-03-10T18:15:17.550Z,7.10
2019-03-10T18:17:44.076Z,7.20
2019-03-10T18:20:15.395Z,7.20
2019-03-10T18:22:41.825Z,7.20
2019-03-10T18:25:14.273Z,7.20
2019-03-10T18:27:40.823Z,7.20
2019-03-10T18:30:20.925Z,7.10
2019-03-10T18:32:47.258Z,7.20
2019-03-10T18:35:13.658Z,7.20
2019-03-10T18:37:40.086Z,7.20
2019-03-10T18:40:09.990Z,7.20
2019-03-10T18:42:36.206Z,7.20
2019-03-10T18:45:05.074Z,7.20
2019-03-10T18:47:31.287Z,7.30
2019-03-10T18:49:57.971Z,7.30
2019-03-10T18:52:24.196Z,7.30
2019-03-10T18:54:51.522Z,7.30
2019-03-10T18:57:18.526Z,7.30
2019-03-10T18:59:44.731Z,7.30
2019-03-10T19:02:10.959Z,7.30
2019-03-10T19:04:37.158Z,7.20
2019-03-10T19:07:03.467Z,7.20
2019-03-10T19:09:29.685Z,7.20
2019-03-10T19:11:55.892Z,7.10
2019-03-10T19:14:26.927Z,7.00
2019-03-10T19:16:53.231Z,7.00
2019-03-10T19:19:19.471Z,6.90
2019-03-10T19:21:45.693Z,6.80
2019-03-10T19:24:12.011Z,6.90
2019-03-10T19:26:56.162Z,6.80
2019-03-10T19:29:22.382Z,6.80
2019-03-10T19:31:48.594Z,6.70
2019-03-10T19:34:14.815Z,6.70
2019-03-10T19:36:41.014Z,6.60
2019-03-10T19:39:07.213Z,6.60
2019-03-10T19:41:33.456Z,6.60
2019-03-10T19:43:59.923Z,6.50
2019-03-10T19:46:26.236Z,6.50
2019-03-10T19:49:12.556Z,6.40
2019-03-10T19:51:38.795Z,6.40
2019-03-10T19:54:05.001Z,6.50
2019-03-10T19:56:31.235Z,6.50
2019-03-10T19:58:57.439Z,6.60
2019-03-10T20:01:23.675Z,6.60
2019-03-10T20:03:49.908Z,6.60
2019-03-10T20:06:16.236Z,6.60
2019-03-10T20:08:42.549Z,6.70
2019-03-10T20:11:08.761Z,6.70
2019-03-10T20:13:34.970Z,6.70
2019-03-10T20:16:01.470Z,6.40
2019-03-10T20:18:27.732Z,5.80
2019-03-10T20:20:54.039Z,5.30
2019-03-10T20:23:20.267Z,5.10
2019-03-10T20:25:46.479Z,4.90
2019-03-10T20:28:12.703Z,4.90
2019-03-10T20:30:38.902Z,4.90
2019-03-10T20:33:05.139Z,4.90
2019-03-10T20:35:31.356Z,4.90
2019-03-10T20:37:57.685Z,4.90
2019-03-10T20:40:25.087Z,4.90
2019-03-10T20:42:56.885Z,5.00
2019-03-10T20:45:24.608Z,5.00
2019-03-10T20:47:51.359Z,4.80
2019-03-10T20:50:19.458Z,4.40
2019-03-10T20:52:45.917Z,4.10
2019-03-10T20:55:12.914Z,4.00
2019-03-10T20:57:39.136Z,3.90
2019-03-10T21:00:08.964Z,3.80
2019-03-10T21:02:35.167Z,3.70
2019-03-10T21:05:01.475Z,3.70
2019-03-10T21:07:27.695Z,3.60
2019-03-10T21:09:53.902Z,3.50
2019-03-10T21:12:20.107Z,3.20
2019-03-10T21:14:46.446Z,3.10
2019-03-10T21:17:12.672Z,3.10
2019-03-10T21:19:38.891Z,3.20
2019-03-10T21:22:05.125Z,3.30
2019-03-10T21:24:31.618Z,3.40
2019-03-10T21:26:57.895Z,3.50
2019-03-10T21:29:24.120Z,3.50
2019-03-10T21:31:50.327Z,3.60
2019-03-10T21:34:16.567Z,3.60
2019-03-10T21:37:01.167Z,3.80
2019-03-10T21:39:34.567Z,3.90
2019-03-10T21:41:55.495Z,4.00
2019-03-10T21:44:26.609Z,4.10
2019-03-10T21:46:50.127Z,4.10
2019-03-10T21:49:16.436Z,4.30
2019-03-10T21:51:42.759Z,4.40
2019-03-10T21:54:08.991Z,4.50
2019-03-10T21:56:35.212Z,4.60
2019-03-10T21:59:01.486Z,4.70
2019-03-10T22:01:27.820Z,4.80
2019-03-10T22:03:54.056Z,4.80
2019-03-10T22:06:20.594Z,4.80
2019-03-10T22:08:46.827Z,4.80
2019-03-10T22:11:13.063Z,4.80
2019-03-10T22:13:46.587Z,4.80
2019-03-10T22:16:07.394Z,4.80
2019-03-10T22:18:33.594Z,4.90
2019-03-10T22:20:59.847Z,4.80
2019-03-10T22:23:26.447Z,4.80
2019-03-10T22:25:52.656Z,4.90
2019-03-10T22:28:18.856Z,5.00
2019-03-10T22:30:45.078Z,5.00
2019-03-10T22:33:11.287Z,5.10
2019-03-10T22:35:37.487Z,5.10
2019-03-10T22:38:03.731Z,5.10
2019-03-10T22:40:30.087Z,5.10
2019-03-10T22:42:56.581Z,5.10
2019-03-10T22:45:22.948Z,5.10
2019-03-10T22:47:49.167Z,5.10
2019-03-10T22:50:16.159Z,5.20
2019-03-10T22:52:42.783Z,5.20
2019-03-10T22:55:10.183Z,5.20
2019-03-10T22:57:36.691Z,5.20
2019-03-10T23:00:25.760Z,5.20
2019-03-10T23:02:52.169Z,5.20
2019-03-10T23:05:18.471Z,5.10
2019-03-10T23:07:44.711Z,5.10
2019-03-10T23:10:12.718Z,5.00
2019-03-10T23:12:39.387Z,5.10
2019-03-10T23:15:08.198Z,5.10
2019-03-10T23:17:34.481Z,5.10
2019-03-10T23:20:00.689Z,5.10
2019-03-10T23:22:27.186Z,5.10
2019-03-10T23:24:53.481Z,5.10
2019-03-10T23:27:19.691Z,5.10
2019-03-10T23:29:45.915Z,5.10
2019-03-10T23:32:12.122Z,5.20
2019-03-10T23:34:38.621Z,5.10
2019-03-10T23:37:04.850Z,5.20
2019-03-10T23:39:31.118Z,5.20
2019-03-10T23:41:57.327Z,5.20
2019-03-10T23:44:23.559Z,5.20
2019-03-10T23:46:49.761Z,5.30
2019-03-10T23:49:15.959Z,5.30
2019-03-10T23:51:42.195Z,5.40
2019-03-10T23:54:08.384Z,5.40
2019-03-10T23:56:34.590Z,5.40
2019-03-10T23:59:00.819Z,5.40
